Time;durP1;ratioP1;P1;durP2;ratioP2;P2;SDS_P1;SDS_P2;PMS_P1;PMS_P2;Temp;Humidity;BMP_temperature;BMP_pressure;BME280_temperature;BME280_humidity;BME280_pressure;Samples;Min_cycle;Max_cycle;Signal;HPM_P1;HPM_P2
2021/11/19 00:01:24;;;;;;;84.55;39.75;;;;;;;2.01;92.52;99669.86;1746769;80;21560;-62
2021/11/19 00:03:50;;;;;;;77.35;38.73;;;;;;;1.98;92.48;99670.38;1717309;81;21540;-63
2021/11/19 00:06:18;;;;;;;82.85;40.03;;;;;;;1.95;92.54;99667.63;1750701;81;21060;-62
2021/11/19 00:08:44;;;;;;;84.42;40.20;;;;;;;1.94;92.57;99665.44;1747277;81;21128;-63
2021/11/19 00:11:16;;;;;;;90.55;42.00;;;;;;;1.93;92.58;99671.14;1745088;81;21459;-62
2021/11/19 00:13:43;;;;;;;88.95;41.60;;;;;;;1.90;92.47;99662.97;1747206;81;21047;-63
2021/11/19 00:16:09;;;;;;;88.07;41.80;;;;;;;1.88;92.47;99658.33;1752473;81;21008;-63
2021/11/19 00:18:36;;;;;;;85.40;39.15;;;;;;;1.87;92.58;99656.70;1743062;81;21008;-64
2021/11/19 00:21:03;;;;;;;83.87;38.85;;;;;;;1.90;92.63;99660.79;1751384;81;21130;-62
2021/11/19 00:23:29;;;;;;;77.05;37.33;;;;;;;1.88;92.73;99655.61;1698649;81;21049;-62
2021/11/19 00:25:55;;;;;;;81.32;36.53;;;;;;;1.89;92.85;99654.55;1748096;81;21556;-62
2021/11/19 00:28:22;;;;;;;85.03;38.40;;;;;;;1.91;92.99;99656.45;1747577;81;20997;-63
2021/11/19 00:30:49;;;;;;;79.05;36.70;;;;;;;1.92;93.09;99652.67;1744196;81;21001;-62
2021/11/19 00:33:15;;;;;;;80.53;38.88;;;;;;;1.94;93.13;99654.56;1748333;81;21077;-63
2021/11/19 00:35:45;;;;;;;80.00;38.67;;;;;;;1.97;93.20;99645.63;1738775;81;21049;-63
2021/11/19 00:38:13;;;;;;;73.02;37.03;;;;;;;1.98;93.25;99648.64;1752924;81;21076;-62
2021/11/19 00:40:52;;;;;;;77.78;37.55;;;;;;;2.00;93.30;99645.09;1740577;81;20989;-62
2021/11/19 00:43:19;;;;;;;82.30;38.95;;;;;;;2.00;93.38;99642.37;1746639;81;21067;-63
2021/11/19 00:45:46;;;;;;;73.83;36.00;;;;;;;2.02;93.52;99636.15;1746702;80;21872;-62
2021/11/19 00:48:12;;;;;;;67.82;35.38;;;;;;;2.04;93.60;99638.08;1744882;81;20982;-61
2021/11/19 00:50:47;;;;;;;75.22;36.40;;;;;;;2.05;93.69;99628.83;1748100;81;21045;-63
2021/11/19 00:53:14;;;;;;;71.57;37.30;;;;;;;2.08;93.74;99628.86;1685753;83;21031;-62
2021/11/19 00:55:42;;;;;;;74.77;35.00;;;;;;;2.10;93.75;99622.63;1738855;81;21001;-62
2021/11/19 00:58:11;;;;;;;78.62;34.75;;;;;;;2.11;93.81;99615.58;1738713;81;21110;-63
2021/11/19 01:00:47;;;;;;;71.82;37.60;;;;;;;2.14;93.90;99612.33;1739024;81;21002;-63
2021/11/19 01:03:16;;;;;;;79.60;37.13;;;;;;;2.16;93.87;99610.70;1719008;81;21052;-63
2021/11/19 01:05:43;;;;;;;71.95;36.15;;;;;;;2.17;93.92;99610.97;1738888;81;21008;-62
2021/11/19 01:08:11;;;;;;;71.65;34.95;;;;;;;2.18;93.96;99607.98;1663869;84;21054;-62
2021/11/19 01:10:38;;;;;;;66.00;33.48;;;;;;;2.20;94.02;99605.03;1744547;81;21028;-62
2021/11/19 01:13:07;;;;;;;67.10;32.45;;;;;;;2.22;94.14;99600.69;1737685;80;21068;-63
2021/11/19 01:15:57;;;;;;;63.05;32.05;;;;;;;2.24;94.15;99602.59;1737584;81;21052;-61
2021/11/19 01:18:35;;;;;;;64.60;32.93;;;;;;;2.26;94.19;99602.62;1737960;81;21013;-63
2021/11/19 01:21:12;;;;;;;65.95;34.38;;;;;;;2.28;94.15;99598.27;1735343;80;21155;-63
2021/11/19 01:23:39;;;;;;;67.78;34.30;;;;;;;2.28;94.18;99586.86;1716252;81;21230;-63
2021/11/19 01:26:11;;;;;;;61.02;31.62;;;;;;;2.29;94.16;99589.02;1737584;81;21029;-62
2021/11/19 01:28:39;;;;;;;63.08;33.35;;;;;;;2.28;94.08;99578.70;1732861;81;21059;-64
2021/11/19 01:31:15;;;;;;;58.42;30.55;;;;;;;2.29;94.04;99578.14;1742312;81;21009;-64
2021/11/19 01:33:42;;;;;;;60.95;30.37;;;;;;;2.29;93.98;99580.86;1738613;81;21553;-63
2021/11/19 01:36:25;;;;;;;64.05;31.75;;;;;;;2.27;94.05;99578.41;1738870;81;21122;-62
2021/11/19 01:39:02;;;;;;;54.75;29.80;;;;;;;2.28;94.08;99580.06;1716175;81;21127;-63
2021/11/19 01:41:36;;;;;;;57.95;29.75;;;;;;;2.30;94.16;99579.80;1743900;80;21020;-63
2021/11/19 01:44:17;;;;;;;49.35;28.83;;;;;;;2.30;94.20;99573.00;1738186;81;21005;-62
2021/11/19 01:46:47;;;;;;;56.73;29.35;;;;;;;2.30;94.24;99570.28;1740087;80;21016;-64
2021/11/19 01:49:13;;;;;;;54.58;26.17;;;;;;;2.32;94.22;99570.81;1739426;81;21833;-62
2021/11/19 01:51:51;;;;;;;64.87;29.23;;;;;;;2.32;94.21;99565.38;1735076;81;21002;-63
2021/11/19 01:54:23;;;;;;;56.30;28.17;;;;;;;2.33;94.22;99567.03;1720695;81;21083;-63
2021/11/19 01:57:03;;;;;;;47.65;26.50;;;;;;;2.34;94.26;99569.22;1715564;81;21067;-63
2021/11/19 01:59:45;;;;;;;54.45;26.97;;;;;;;2.35;94.27;99562.16;1748929;81;21031;-63
2021/11/19 02:02:17;;;;;;;51.53;26.40;;;;;;;2.37;94.36;99557.24;1749613;81;21760;-63
2021/11/19 02:04:49;;;;;;;48.28;26.93;;;;;;;2.40;94.37;99551.83;1748375;81;21374;-64
2021/11/19 02:07:26;;;;;;;55.35;27.77;;;;;;;2.41;94.36;99544.77;1748491;81;21181;-62
2021/11/19 02:10:53;;;;;;;47.70;24.60;;;;;;;2.43;94.39;99546.69;1749658;81;21039;-63
2021/11/19 02:13:59;;;;;;;50.35;26.93;;;;;;;2.46;94.37;99547.24;1716047;81;21102;-62
2021/11/19 02:16:32;;;;;;;47.13;26.35;;;;;;;2.46;94.50;99542.60;1716132;82;21473;-63
2021/11/19 02:19:07;;;;;;;;;;;;;;;2.47;94.47;99540.17;1698771;83;21066;-62
2021/11/19 02:21:48;;;;;;;47.70;24.87;;;;;;;2.48;94.48;99539.08;1696523;83;20528;-62
2021/11/19 02:24:41;;;;;;;50.15;23.45;;;;;;;2.47;94.50;99537.45;1687863;83;21108;-64
2021/11/19 02:27:22;;;;;;;42.23;23.40;;;;;;;2.48;94.46;99535.00;1696869;84;21117;-66
2021/11/19 02:30:12;;;;;;;43.15;22.42;;;;;;;2.51;94.48;99543.16;1701036;83;21932;-63
2021/11/19 02:32:49;;;;;;;49.88;24.87;;;;;;;2.50;94.47;99544.25;1695909;83;21099;-64
2021/11/19 02:35:23;;;;;;;51.70;24.98;;;;;;;2.51;94.44;99551.32;1680827;83;21543;-63
2021/11/19 02:37:58;;;;;;;38.90;23.05;;;;;;;2.51;94.35;99540.44;1698102;83;20996;-63
2021/11/19 02:40:29;;;;;;;44.65;21.17;;;;;;;2.51;94.28;99538.55;1699275;83;22059;-64
2021/11/19 02:43:01;;;;;;;41.02;20.40;;;;;;;2.50;94.26;99527.93;1695011;83;21038;-65
2021/11/19 02:45:39;;;;;;;42.33;23.25;;;;;;;2.50;94.17;99526.57;1697462;83;21088;-64
2021/11/19 02:48:11;;;;;;;36.03;19.12;;;;;;;2.47;94.12;99527.94;1696497;83;21572;-64
2021/11/19 02:50:37;;;;;;;35.92;19.62;;;;;;;2.47;94.02;99533.38;1695278;83;21032;-64
2021/11/19 02:53:05;;;;;;;32.28;19.98;;;;;;;2.43;93.88;99530.36;1696203;83;21024;-63
2021/11/19 02:55:38;;;;;;;42.90;22.02;;;;;;;2.41;93.83;99532.52;1698441;83;21114;-63
2021/11/19 02:58:09;;;;;;;36.67;21.50;;;;;;;2.40;93.84;99525.99;1695992;83;21033;-63
2021/11/19 03:00:45;;;;;;;43.45;22.80;;;;;;;2.38;93.85;99533.06;1692072;83;21071;-65
2021/11/19 03:03:12;;;;;;;39.15;21.25;;;;;;;2.38;93.89;99540.39;1691720;83;21032;-65
2021/11/19 03:05:38;;;;;;;39.88;21.68;;;;;;;2.37;93.96;99530.61;1691669;83;21059;-64
2021/11/19 03:08:06;;;;;;;31.90;20.00;;;;;;;2.36;94.00;99535.22;1678144;84;21193;-64
2021/11/19 03:10:38;;;;;;;37.00;20.95;;;;;;;2.36;93.99;99527.59;1675348;84;21030;-64
2021/11/19 03:13:05;;;;;;;39.65;22.58;;;;;;;2.37;94.04;99526.53;1672064;84;21052;-64
2021/11/19 03:15:38;;;;;;;42.15;22.22;;;;;;;2.37;94.04;99512.92;1675687;84;21069;-63
2021/11/19 03:18:05;;;;;;;38.02;20.97;;;;;;;2.36;94.01;99512.63;1656976;84;21052;-62
2021/11/19 03:20:31;;;;;;;40.80;22.20;;;;;;;2.36;94.02;99505.30;1673390;84;21696;-61
2021/11/19 03:22:58;;;;;;;42.98;21.23;;;;;;;2.36;94.04;99505.84;1684383;84;21056;-63
2021/11/19 03:25:30;;;;;;;48.65;27.00;;;;;;;2.34;94.07;99499.30;1683434;83;21130;-62
2021/11/19 03:27:58;;;;;;;;;;;;;;;2.35;94.06;99496.05;1690544;84;21023;-62
2021/11/19 03:30:28;;;;;;;43.23;23.20;;;;;;;2.34;93.99;99493.86;1658314;83;20443;-62
2021/11/19 03:32:55;;;;;;;46.10;23.85;;;;;;;2.32;94.07;99485.14;1737448;81;21442;-63
2021/11/19 03:35:23;;;;;;;42.50;25.92;;;;;;;2.32;94.04;99493.30;1744723;81;21060;-62
2021/11/19 03:37:50;;;;;;;43.80;24.55;;;;;;;2.29;94.01;99498.75;1744983;80;21010;-62
2021/11/19 03:40:21;;;;;;;44.80;24.47;;;;;;;2.28;93.95;99503.09;1694014;83;21024;-62
2021/11/19 03:42:49;;;;;;;44.13;24.35;;;;;;;2.24;94.01;99499.25;1687816;83;21072;-63
2021/11/19 03:45:20;;;;;;;50.08;28.42;;;;;;;2.22;94.11;99493.28;1747163;81;21033;-63
2021/11/19 03:47:50;;;;;;;47.80;27.65;;;;;;;2.20;94.21;99493.55;1736586;81;21080;-62
2021/11/19 03:50:24;;;;;;;58.90;30.25;;;;;;;2.20;94.32;99489.47;1740839;81;21522;-63
2021/11/19 03:52:51;;;;;;;50.90;29.55;;;;;;;2.21;94.36;99484.30;1731854;81;21037;-64
2021/11/19 03:55:23;;;;;;;53.15;28.35;;;;;;;2.21;94.46;99480.22;1727206;81;21031;-63
2021/11/19 03:57:49;;;;;;;53.50;27.52;;;;;;;2.24;94.54;99472.06;1749745;81;21825;-63
2021/11/19 04:00:28;;;;;;;55.48;30.92;;;;;;;2.26;94.60;99463.93;1748940;81;20993;-64
2021/11/19 04:02:56;;;;;;;51.00;29.07;;;;;;;2.29;94.58;99459.84;1750102;81;21568;-65
2021/11/19 04:05:23;;;;;;;56.98;31.75;;;;;;;2.30;94.66;99454.14;1745672;81;21056;-65
2021/11/19 04:07:49;;;;;;;60.48;32.20;;;;;;;2.35;94.67;99453.89;1747599;81;21135;-64
2021/11/19 04:10:18;;;;;;;53.85;29.00;;;;;;;2.36;94.67;99446.83;1742818;81;21509;-64
2021/11/19 04:12:44;;;;;;;48.68;26.77;;;;;;;2.39;94.64;99444.13;1744948;81;21010;-64
2021/11/19 04:15:15;;;;;;;51.73;28.45;;;;;;;2.41;94.57;99441.41;1746970;81;20988;-64
2021/11/19 04:17:41;;;;;;;49.98;25.95;;;;;;;2.42;94.50;99436.80;1667711;82;21062;-63
2021/11/19 04:20:09;;;;;;;50.25;25.23;;;;;;;2.42;94.45;99436.23;1666045;83;21088;-64
2021/11/19 04:22:36;;;;;;;43.68;23.18;;;;;;;2.43;94.42;99428.36;1685981;83;21344;-64
2021/11/19 04:25:05;;;;;;;44.70;24.75;;;;;;;2.45;94.46;99428.63;1724214;81;21091;-64
2021/11/19 04:27:34;;;;;;;43.80;25.50;;;;;;;2.45;94.38;99432.17;1750901;81;20994;-63
2021/11/19 04:30:12;;;;;;;41.58;23.85;;;;;;;2.45;94.32;99425.38;1747127;81;21030;-64
2021/11/19 04:32:39;;;;;;;43.80;24.23;;;;;;;2.45;94.29;99415.85;1744142;81;21028;-64
2021/11/19 04:35:06;;;;;;;40.88;22.87;;;;;;;2.45;94.32;99407.69;1748715;81;21191;-63
2021/11/19 04:37:34;;;;;;;46.68;23.60;;;;;;;2.46;94.29;99409.88;1748328;81;21025;-63
2021/11/19 04:40:05;;;;;;;41.10;22.07;;;;;;;2.46;94.24;99400.36;1749605;80;21079;-63
2021/11/19 04:42:32;;;;;;;46.08;25.37;;;;;;;2.47;94.22;99396.54;1750620;81;20990;-63
2021/11/19 04:44:58;;;;;;;48.78;24.25;;;;;;;2.46;94.21;99403.88;1748923;81;21524;-63
2021/11/19 04:47:26;;;;;;;42.70;22.17;;;;;;;2.47;94.16;99403.34;1741844;81;21287;-63
2021/11/19 04:49:54;;;;;;;46.15;22.77;;;;;;;2.46;94.08;99407.16;1748037;81;21519;-63
2021/11/19 04:52:21;;;;;;;45.75;22.98;;;;;;;2.46;94.02;99405.23;1735738;80;21025;-62
2021/11/19 04:54:47;;;;;;;39.63;20.70;;;;;;;2.46;93.92;99407.16;1687939;84;21061;-64
2021/11/19 04:57:14;;;;;;;38.63;21.82;;;;;;;2.44;93.90;99400.59;1678180;85;21064;-62
2021/11/19 04:59:41;;;;;;;45.48;23.57;;;;;;;2.42;93.86;99403.59;1677309;85;21147;-63
2021/11/19 05:02:12;;;;;;;41.50;22.30;;;;;;;2.41;93.84;99398.42;1665347;84;21078;-63
2021/11/19 05:04:49;;;;;;;44.93;22.02;;;;;;;2.39;93.84;99408.21;1673972;84;21047;-62
2021/11/19 05:07:18;;;;;;;49.27;22.17;;;;;;;2.39;93.87;99408.21;1666492;85;21036;-63
2021/11/19 05:09:45;;;;;;;46.40;22.65;;;;;;;2.38;93.88;99405.23;1642241;85;21949;-62
2021/11/19 05:12:24;;;;;;;45.88;21.27;;;;;;;2.38;93.87;99406.59;1659218;85;21058;-63
2021/11/19 05:14:52;;;;;;;39.30;22.35;;;;;;;2.38;93.86;99382.11;1662133;85;21103;-64
2021/11/19 05:17:22;;;;;;;37.95;21.15;;;;;;;2.38;93.87;99394.88;1647451;85;21083;-64
2021/11/19 05:19:50;;;;;;;47.73;24.92;;;;;;;2.38;93.83;99391.63;1661146;85;21029;-63
2021/11/19 05:22:17;;;;;;;41.30;22.87;;;;;;;2.38;93.85;99391.63;1661352;85;21578;-64
2021/11/19 05:24:44;;;;;;;44.38;21.55;;;;;;;2.39;93.84;99391.89;1664286;85;21572;-64
2021/11/19 05:27:11;;;;;;;39.30;21.20;;;;;;;2.40;93.79;99390.83;1664932;85;21062;-63
2021/11/19 05:29:38;;;;;;;45.70;22.90;;;;;;;2.40;93.75;99384.02;1661755;85;21025;-62
2021/11/19 05:32:06;;;;;;;37.60;22.20;;;;;;;2.42;93.86;99379.67;1643100;86;21188;-64
2021/11/19 05:34:33;;;;;;;36.45;22.37;;;;;;;2.45;93.77;99386.47;1664792;85;21049;-63
2021/11/19 05:37:00;;;;;;;38.75;19.82;;;;;;;2.45;93.71;99381.02;1666418;86;21664;-64
2021/11/19 05:39:26;;;;;;;40.67;20.23;;;;;;;2.45;93.64;99386.47;1666132;85;21057;-62
2021/11/19 05:41:54;;;;;;;40.15;20.52;;;;;;;2.43;93.58;99382.66;1667439;85;21096;-63
2021/11/19 05:44:22;;;;;;;37.28;21.12;;;;;;;2.43;93.52;99387.56;1647527;86;21538;-61
2021/11/19 05:46:55;;;;;;;41.00;21.02;;;;;;;2.40;93.50;99386.75;1663691;85;21016;-63
2021/11/19 05:49:23;;;;;;;37.20;20.40;;;;;;;2.40;93.53;99388.64;1659084;85;21147;-63
2021/11/19 05:51:54;;;;;;;43.92;23.05;;;;;;;2.38;93.55;99386.19;1661830;85;21060;-61
2021/11/19 05:54:22;;;;;;;49.63;20.90;;;;;;;2.39;93.59;99382.94;1666117;85;21513;-63
2021/11/19 05:56:50;;;;;;;38.58;22.07;;;;;;;2.38;93.62;99382.11;1680148;84;21048;-62
2021/11/19 05:59:17;;;;;;;36.13;20.62;;;;;;;2.39;93.72;99375.58;1686204;84;21029;-63
2021/11/19 06:02:00;;;;;;;39.90;20.20;;;;;;;2.40;93.70;99371.78;1609985;86;21768;-62
2021/11/19 06:04:28;;;;;;;44.98;22.85;;;;;;;2.42;93.67;99372.88;1663371;84;20994;-64
2021/11/19 06:06:59;;;;;;;34.67;20.23;;;;;;;2.42;93.67;99371.52;1680319;84;21529;-63
2021/11/19 06:09:31;;;;;;;39.73;21.73;;;;;;;2.42;93.68;99366.08;1683392;84;21049;-63
2021/11/19 06:12:17;;;;;;;39.78;22.27;;;;;;;2.40;93.68;99357.36;1683849;84;21056;-61
2021/11/19 06:14:48;;;;;;;45.00;23.73;;;;;;;2.41;93.76;99358.45;1657618;84;21117;-63
2021/11/19 06:17:21;;;;;;;28.85;16.80;;;;;;;2.41;93.74;99353.02;1681841;84;21522;-62
2021/11/19 06:19:52;;;;;;;39.18;22.52;;;;;;;2.41;93.76;99353.02;1678534;84;21041;-63
2021/11/19 06:22:24;;;;;;;34.43;20.50;;;;;;;2.42;93.77;99348.40;1681182;84;21030;-63
2021/11/19 06:24:53;;;;;;;45.58;23.65;;;;;;;2.39;93.73;99341.58;1665897;84;21088;-62
2021/11/19 06:27:24;;;;;;;42.10;24.15;;;;;;;2.39;93.84;99341.58;1678379;84;21104;-63
2021/11/19 06:29:53;;;;;;;38.00;23.83;;;;;;;2.40;93.90;99336.97;1681675;84;21542;-62
2021/11/19 06:32:20;;;;;;;36.23;22.27;;;;;;;2.40;93.87;99328.27;1680816;84;21108;-64
2021/11/19 06:34:47;;;;;;;41.88;21.52;;;;;;;2.40;93.98;99315.20;1685108;84;21109;-63
2021/11/19 06:37:14;;;;;;;34.92;21.17;;;;;;;2.42;94.07;99312.47;1680712;84;21041;-62
2021/11/19 06:39:43;;;;;;;38.28;20.82;;;;;;;2.41;94.08;99306.77;1681310;84;21231;-63
2021/11/19 06:42:13;;;;;;;34.15;20.25;;;;;;;2.44;94.18;99308.13;1657775;85;21655;-63
2021/11/19 06:45:00;;;;;;;36.65;21.62;;;;;;;2.46;94.20;99309.23;1663339;84;21047;-62
2021/11/19 06:47:28;;;;;;;34.08;20.90;;;;;;;2.47;94.21;99299.44;1682453;84;21699;-65
2021/11/19 06:49:57;;;;;;;34.25;19.95;;;;;;;2.48;94.33;99297.52;1679406;84;21013;-64
2021/11/19 06:52:41;;;;;;;28.35;17.57;;;;;;;2.51;94.32;99295.61;1685209;85;21103;-63
2021/11/19 06:55:15;;;;;;;28.23;18.45;;;;;;;2.50;94.39;99290.73;1648372;84;21041;-61
2021/11/19 06:57:44;;;;;;;32.23;19.15;;;;;;;2.53;94.53;99280.67;1679373;84;21092;-62
2021/11/19 07:00:18;;;;;;;37.35;20.70;;;;;;;2.55;94.51;99277.67;1680325;84;21494;-60
2021/11/19 07:02:45;;;;;;;33.08;19.65;;;;;;;2.56;94.57;99276.57;1677917;84;21088;-63
2021/11/19 07:05:13;;;;;;;29.98;19.95;;;;;;;2.59;94.77;99268.42;1684281;84;21161;-63
2021/11/19 07:07:40;;;;;;;34.58;20.37;;;;;;;2.60;94.65;99265.43;1684116;84;21538;-62
2021/11/19 07:10:09;;;;;;;33.05;21.35;;;;;;;2.62;94.68;99263.26;1681644;84;21602;-62
2021/11/19 07:12:36;;;;;;;32.70;18.30;;;;;;;2.63;94.70;99262.16;1685739;84;21095;-63
2021/11/19 07:15:06;;;;;;;30.00;19.17;;;;;;;2.63;94.66;99252.64;1686522;84;21076;-60
2021/11/19 07:17:34;;;;;;;34.70;20.02;;;;;;;2.65;94.71;99257.27;1684373;84;21501;-63
2021/11/19 07:20:01;;;;;;;32.00;19.00;;;;;;;2.66;94.76;99256.16;1682701;84;21604;-63
2021/11/19 07:22:28;;;;;;;32.33;18.35;;;;;;;2.67;94.78;99252.91;1686831;83;21018;-61
2021/11/19 07:24:57;;;;;;;28.87;18.57;;;;;;;2.67;94.85;99242.02;1745818;81;21044;-60
2021/11/19 07:27:23;;;;;;;37.73;21.62;;;;;;;2.69;94.92;99239.85;1737575;81;21082;-60
2021/11/19 07:29:51;;;;;;;29.52;19.87;;;;;;;2.72;95.03;99243.91;1741271;81;21156;-61
2021/11/19 07:32:36;;;;;;;33.78;20.55;;;;;;;2.76;95.06;99248.53;1739196;81;20986;-63
2021/11/19 07:35:22;;;;;;;36.95;20.37;;;;;;;2.78;95.05;99240.12;1731217;81;21038;-61
2021/11/19 07:38:06;;;;;;;32.08;19.62;;;;;;;2.79;95.09;99242.56;1744017;81;21544;-62
2021/11/19 07:40:38;;;;;;;33.00;20.88;;;;;;;2.82;95.13;99233.02;1709375;83;21061;-61
2021/11/19 07:43:16;;;;;;;33.80;21.68;;;;;;;2.84;95.18;99228.66;1691695;83;21150;-61
2021/11/19 07:46:02;;;;;;;36.77;22.87;;;;;;;2.86;95.28;99230.56;1686627;83;20997;-62
2021/11/19 07:48:33;;;;;;;39.55;23.12;;;;;;;2.90;95.36;99227.58;1689965;83;21558;-62
2021/11/19 07:51:04;;;;;;;40.48;22.80;;;;;;;2.93;95.36;99227.02;1690361;83;21012;-61
2021/11/19 07:53:32;;;;;;;43.13;25.70;;;;;;;2.97;95.39;99230.01;1686583;83;21080;-63
2021/11/19 07:55:58;;;;;;;43.30;24.67;;;;;;;2.98;95.38;99228.91;1683907;85;21507;-62
2021/11/19 07:58:26;;;;;;;36.05;21.40;;;;;;;3.00;95.27;99226.73;1686278;83;21028;-61
2021/11/19 08:00:53;;;;;;;40.63;21.65;;;;;;;3.01;95.28;99218.81;1683608;85;21489;-61
2021/11/19 08:03:20;;;;;;;43.95;21.97;;;;;;;3.02;95.30;99220.47;1728754;83;21036;-60
2021/11/19 08:05:54;;;;;;;39.35;22.65;;;;;;;3.04;95.38;99212.28;1729209;82;21079;-61
2021/11/19 08:08:26;;;;;;;38.90;22.90;;;;;;;3.07;95.35;99213.61;1733273;81;21356;-61
2021/11/19 08:11:00;;;;;;;37.95;22.70;;;;;;;3.09;95.32;99208.72;1728633;82;20985;-62
2021/11/19 08:13:27;;;;;;;43.60;24.05;;;;;;;3.10;95.32;99204.92;1728579;83;21593;-61
2021/11/19 08:15:54;;;;;;;35.33;22.70;;;;;;;3.12;95.40;99195.90;1732665;82;21025;-63
2021/11/19 08:18:30;;;;;;;37.30;22.17;;;;;;;3.14;95.38;99199.17;1728645;82;21052;-62
2021/11/19 08:20:58;;;;;;;35.73;23.45;;;;;;;3.18;95.40;99197.25;1728754;83;21144;-62
2021/11/19 08:23:35;;;;;;;39.42;22.73;;;;;;;3.21;95.47;99189.91;1733079;82;21068;-61
2021/11/19 08:26:06;;;;;;;37.35;22.60;;;;;;;3.22;95.51;99190.98;1760098;81;21052;-62
2021/11/19 08:28:33;;;;;;;34.95;23.20;;;;;;;3.25;95.52;99184.16;1759174;81;20982;-62
2021/11/19 08:31:01;;;;;;;40.10;23.47;;;;;;;3.28;95.56;99176.78;1749622;81;21478;-62
2021/11/19 08:33:27;;;;;;;37.67;22.52;;;;;;;3.31;95.63;99169.97;1733425;81;21144;-61
2021/11/19 08:35:55;;;;;;;41.77;23.80;;;;;;;3.34;95.62;99167.51;1728858;82;21026;-62
2021/11/19 08:38:22;;;;;;;35.73;23.92;;;;;;;3.36;95.58;99155.77;1733390;82;21088;-62
2021/11/19 08:40:49;;;;;;;39.40;23.73;;;;;;;3.38;95.50;99156.30;1728706;82;21044;-62
2021/11/19 08:43:20;;;;;;;36.48;21.05;;;;;;;3.42;95.56;99153.84;1742967;81;20998;-62
2021/11/19 08:45:48;;;;;;;37.63;21.25;;;;;;;3.45;95.56;99146.45;1759867;81;21230;-62
2021/11/19 08:48:15;;;;;;;32.13;21.17;;;;;;;3.47;95.55;99142.09;1671574;84;21036;-64
2021/11/19 08:50:42;;;;;;;32.10;21.17;;;;;;;3.48;95.50;99132.84;1671180;85;21053;-63
2021/11/19 08:53:13;;;;;;;34.58;21.50;;;;;;;3.49;95.49;99141.27;1673990;85;21081;-62
2021/11/19 08:55:44;;;;;;;33.95;21.70;;;;;;;3.50;95.42;99126.53;1671404;85;21518;-62
2021/11/19 08:58:23;;;;;;;32.70;19.50;;;;;;;3.51;95.50;99115.92;1674141;84;21141;-62
2021/11/19 09:00:50;;;;;;;31.30;20.17;;;;;;;3.52;95.49;99117.00;1675979;84;21044;-63
2021/11/19 09:03:18;;;;;;;31.23;19.82;;;;;;;3.53;95.46;99111.02;1665625;86;21100;-63
2021/11/19 09:05:45;;;;;;;28.27;18.67;;;;;;;3.53;95.48;99113.17;1665453;85;21576;-63
2021/11/19 09:08:16;;;;;;;33.98;20.52;;;;;;;3.56;95.56;99103.63;1668741;86;21021;-65
2021/11/19 09:10:45;;;;;;;36.28;19.15;;;;;;;3.57;95.48;99101.16;1692354;84;21720;-63
2021/11/19 09:13:12;;;;;;;30.48;20.27;;;;;;;3.59;95.57;99094.88;1711464;83;21092;-63
2021/11/19 09:15:40;;;;;;;30.17;19.05;;;;;;;3.61;95.70;99087.78;1711176;83;21522;-63
2021/11/19 09:18:43;;;;;;;30.48;18.37;;;;;;;3.63;95.71;99088.32;1691409;84;20986;-63
2021/11/19 09:21:25;;;;;;;29.92;19.92;;;;;;;3.64;95.60;99085.31;1687852;85;21074;-61
2021/11/19 09:24:13;;;;;;;31.52;18.55;;;;;;;3.67;95.64;99084.48;1685803;85;21811;-62
2021/11/19 09:26:47;;;;;;;32.20;20.30;;;;;;;3.66;95.65;99080.94;1672969;85;20981;-63
2021/11/19 09:29:16;;;;;;;;;;;;;;;3.65;95.69;99074.66;1676823;85;21021;-63
2021/11/19 09:31:43;;;;;;;42.88;20.45;;;;;;;3.65;95.79;99068.42;1685753;85;20138;-61
2021/11/19 09:34:10;;;;;;;28.38;18.30;;;;;;;3.67;95.93;99066.77;1685607;85;21002;-62
2021/11/19 09:36:38;;;;;;;29.15;17.95;;;;;;;3.70;95.98;99059.38;1697379;83;22011;-63
2021/11/19 09:39:07;;;;;;;32.63;19.57;;;;;;;3.72;96.01;99057.19;1696956;83;21115;-62
2021/11/19 09:42:00;;;;;;;28.98;17.55;;;;;;;3.74;96.00;99059.06;1685740;84;21010;-63
2021/11/19 09:44:38;;;;;;;32.15;18.17;;;;;;;3.76;96.03;99047.33;1685638;85;21049;-62
2021/11/19 09:47:27;;;;;;;27.35;17.00;;;;;;;3.78;96.03;99043.77;1685287;84;21041;-62
2021/11/19 09:50:46;;;;;;;27.62;16.70;;;;;;;3.79;96.06;99046.75;1676261;84;21941;-63
2021/11/19 09:53:51;;;;;;;29.05;17.92;;;;;;;3.80;96.07;99036.13;1680083;83;20933;-62
2021/11/19 09:56:47;;;;;;;29.67;19.25;;;;;;;3.81;96.06;99024.12;1684308;84;21096;-62
2021/11/19 09:59:28;;;;;;;33.95;20.10;;;;;;;3.82;96.23;99021.64;1686016;84;21464;-62
2021/11/19 10:02:21;;;;;;;32.53;18.35;;;;;;;3.83;96.29;99015.11;1687960;84;21115;-61
2021/11/19 10:05:27;;;;;;;35.00;18.55;;;;;;;3.85;96.32;99006.10;1690127;84;21544;-63
2021/11/19 10:08:03;;;;;;;29.65;17.52;;;;;;;3.86;96.27;99007.72;1684003;84;21028;-62
2021/11/19 10:11:01;;;;;;;28.80;18.10;;;;;;;3.87;96.33;98998.42;1659277;84;21631;-62
2021/11/19 10:14:04;;;;;;;30.70;17.40;;;;;;;3.88;96.34;98990.53;1692023;84;21032;-63
2021/11/19 10:17:24;;;;;;;32.20;17.90;;;;;;;3.91;96.40;98991.06;1690979;84;21493;-61
2021/11/19 10:20:00;;;;;;;29.75;18.48;;;;;;;3.91;96.48;98980.95;1660574;84;22603;-62
2021/11/19 10:22:36;;;;;;;28.17;16.93;;;;;;;3.95;96.57;98982.55;1661399;84;21053;-62
2021/11/19 10:25:11;;;;;;;25.15;16.37;;;;;;;3.96;96.50;98973.29;1689837;84;20989;-63
2021/11/19 10:27:45;;;;;;;29.80;16.95;;;;;;;3.98;96.50;98975.15;1674299;84;21050;-63
2021/11/19 10:30:40;;;;;;;27.85;16.17;;;;;;;4.01;96.51;98969.11;1702466;83;21106;-63
2021/11/19 10:33:28;;;;;;;;;;;;;;;4.01;96.51;98960.39;1657311;84;21783;-61
2021/11/19 10:36:42;;;;;;;34.45;17.62;;;;;;;4.05;96.47;98961.17;1691489;84;20241;-62
2021/11/19 10:40:05;;;;;;;29.37;15.18;;;;;;;4.05;96.46;98951.09;1673467;84;21044;-62
2021/11/19 10:42:56;;;;;;;32.45;15.40;;;;;;;4.06;96.54;98947.81;1669626;83;21103;-62
2021/11/19 10:45:51;;;;;;;27.50;16.12;;;;;;;4.07;96.61;98935.80;1675322;83;21578;-61
2021/11/19 10:48:52;;;;;;;28.07;16.70;;;;;;;4.09;96.74;98932.23;1723235;82;21211;-62
2021/11/19 10:51:49;;;;;;;27.37;15.55;;;;;;;4.11;96.81;98932.19;1645251;85;22194;-61
2021/11/19 10:54:48;;;;;;;24.12;13.93;;;;;;;4.14;96.75;98927.52;1691951;83;21681;-61
2021/11/19 10:57:32;;;;;;;25.55;13.95;;;;;;;4.17;96.75;98922.58;1687794;83;21476;-62
2021/11/19 11:00:27;;;;;;;24.90;14.07;;;;;;;4.18;96.83;98922.29;1702010;82;21509;-62
2021/11/19 11:02:57;;;;;;;22.87;12.98;;;;;;;4.21;96.90;98917.64;1696116;83;21167;-62
2021/11/19 11:05:36;;;;;;;22.52;14.53;;;;;;;4.23;96.97;98910.53;1699455;83;21094;-62
2021/11/19 11:08:30;;;;;;;23.15;13.48;;;;;;;4.25;96.94;98912.39;1711020;83;21072;-60
2021/11/19 11:11:11;;;;;;;18.70;12.00;;;;;;;4.26;97.00;98909.36;1670492;84;21024;-62
2021/11/19 11:14:03;;;;;;;17.60;12.37;;;;;;;4.28;97.04;98908.28;1691071;84;21088;-62
2021/11/19 11:16:46;;;;;;;21.27;12.70;;;;;;;4.29;97.04;98905.80;1669262;84;21102;-62
2021/11/19 11:19:17;;;;;;;23.65;13.60;;;;;;;4.31;97.08;98903.59;1703340;83;21044;-62
2021/11/19 11:22:02;;;;;;;23.42;14.68;;;;;;;4.32;97.14;98893.75;1697230;84;21029;-62
2021/11/19 11:24:37;;;;;;;21.40;14.10;;;;;;;4.33;97.21;98888.55;1746733;81;21013;-62
2021/11/19 11:28:00;;;;;;;24.63;14.00;;;;;;;4.34;97.26;98884.73;1748774;81;20973;-62
2021/11/19 11:30:49;;;;;;;20.12;13.38;;;;;;;4.36;97.35;98890.70;1692111;84;21361;-61
2021/11/19 11:33:26;;;;;;;20.52;12.37;;;;;;;4.37;97.33;98888.23;1715275;83;21024;-62
2021/11/19 11:36:10;;;;;;;19.10;11.28;;;;;;;4.38;97.38;98889.05;1732988;80;21587;-63
2021/11/19 11:38:56;;;;;;;22.15;11.22;;;;;;;4.38;97.47;98888.48;1749589;81;21017;-62
2021/11/19 11:41:34;;;;;;;14.83;10.13;;;;;;;4.42;97.50;98893.38;1751018;80;21036;-63
2021/11/19 11:44:08;;;;;;;19.73;11.85;;;;;;;4.42;97.61;98884.61;1752219;81;22304;-62
2021/11/19 11:46:55;;;;;;;19.65;13.20;;;;;;;4.45;97.62;98887.31;1760774;81;21020;-62
2021/11/19 11:49:45;;;;;;;21.25;13.38;;;;;;;4.46;97.64;98879.38;1748624;81;21107;-62
2021/11/19 11:52:24;;;;;;;24.20;15.53;;;;;;;4.48;97.67;98885.36;1742315;81;21037;-61
2021/11/19 11:55:15;;;;;;;33.80;17.15;;;;;;;4.49;97.75;98880.15;1748731;80;21037;-63
2021/11/19 11:58:12;;;;;;;19.20;10.65;;;;;;;4.52;97.83;98874.09;1729260;80;22323;-64
2021/11/19 12:01:10;;;;;;;18.35;9.95;;;;;;;4.54;97.84;98875.98;1726481;82;21094;-63